createdAt,value
2023-03-29T00:00:35.192Z,99.99
2023-03-29T00:01:36.494Z,99.99
2023-03-29T00:02:35.237Z,99.99
2023-03-29T00:03:35.273Z,99.99
2023-03-29T00:04:35.249Z,99.99
2023-03-29T00:05:35.216Z,99.99
2023-03-29T00:06:35.190Z,99.99
2023-03-29T00:07:35.152Z,99.99
2023-03-29T00:08:35.173Z,99.99
2023-03-29T00:09:35.120Z,99.99
2023-03-29T00:10:35.103Z,99.99
2023-03-29T00:11:35.090Z,99.99
2023-03-29T00:12:35.129Z,99.99
2023-03-29T00:13:35.089Z,99.99
2023-03-29T00:14:35.051Z,99.99
2023-03-29T00:15:35.052Z,99.99
2023-03-29T00:16:35.074Z,99.99
2023-03-29T00:17:35.087Z,99.99
2023-03-29T00:18:35.004Z,99.99
2023-03-29T00:19:35.016Z,99.99
2023-03-29T00:20:34.994Z,99.99
2023-03-29T00:21:34.984Z,99.99
2023-03-29T00:22:34.994Z,99.99
2023-03-29T00:23:34.969Z,99.99
2023-03-29T00:24:34.948Z,99.99
2023-03-29T00:25:34.939Z,99.99
2023-03-29T00:26:34.918Z,99.99
2023-03-29T00:27:34.968Z,99.99
2023-03-29T00:28:34.890Z,99.99
2023-03-29T00:29:34.898Z,99.99
2023-03-29T00:30:34.876Z,99.99
2023-03-29T00:31:34.933Z,99.99
2023-03-29T00:32:34.932Z,99.99
2023-03-29T00:33:34.837Z,99.99
2023-03-29T00:34:34.825Z,99.99
2023-03-29T00:35:34.870Z,99.99
2023-03-29T00:36:34.811Z,99.99
2023-03-29T00:37:34.843Z,99.99
2023-03-29T00:38:34.780Z,99.99
2023-03-29T00:39:34.782Z,99.99
2023-03-29T00:40:34.768Z,99.99
2023-03-29T00:41:34.781Z,99.99
2023-03-29T00:42:34.774Z,99.99
2023-03-29T00:43:34.742Z,99.99
2023-03-29T00:44:34.726Z,99.99
2023-03-29T00:45:34.711Z,99.99
2023-03-29T00:46:34.736Z,99.99
2023-03-29T00:47:34.788Z,99.99
2023-03-29T00:48:34.682Z,99.99
2023-03-29T00:49:34.678Z,99.99
2023-03-29T00:50:34.650Z,99.99
2023-03-29T00:51:34.647Z,99.99
2023-03-29T00:52:34.672Z,99.99
2023-03-29T00:53:34.645Z,99.99
2023-03-29T00:54:34.601Z,99.99
2023-03-29T00:55:34.597Z,99.99
2023-03-29T00:56:34.711Z,99.99
2023-03-29T00:57:34.610Z,99.99
2023-03-29T00:58:34.562Z,99.99
2023-03-29T00:59:34.559Z,99.99
2023-03-29T01:00:34.541Z,99.99
2023-03-29T01:01:34.553Z,99.99
2023-03-29T01:02:34.837Z,99.99
2023-03-29T01:03:34.586Z,99.99
2023-03-29T01:04:34.501Z,99.99
2023-03-29T01:05:34.500Z,99.99
2023-03-29T01:06:34.544Z,99.99
2023-03-29T01:07:34.508Z,99.99
2023-03-29T01:08:34.476Z,99.99
2023-03-29T01:09:34.462Z,99.99
2023-03-29T01:10:34.424Z,99.99
2023-03-29T01:11:34.419Z,99.99
2023-03-29T01:12:34.445Z,99.99
2023-03-29T01:13:34.402Z,99.99
2023-03-29T01:14:34.397Z,99.99
2023-03-29T01:15:34.379Z,99.99
2023-03-29T01:16:34.439Z,99.99
2023-03-29T01:17:34.435Z,99.99
2023-03-29T01:18:34.338Z,99.99
2023-03-29T01:19:34.339Z,99.99
2023-03-29T01:20:34.338Z,99.99
2023-03-29T01:21:34.313Z,99.99
2023-03-29T01:22:34.365Z,99.99
2023-03-29T01:23:34.296Z,99.99
2023-03-29T01:24:34.278Z,99.99
2023-03-29T01:25:34.305Z,99.99
2023-03-29T01:26:34.255Z,99.99
2023-03-29T01:27:34.286Z,99.99
2023-03-29T01:28:34.230Z,99.99
2023-03-29T01:29:34.226Z,99.99
2023-03-29T01:30:34.207Z,99.99
2023-03-29T01:31:34.225Z,99.99
2023-03-29T01:32:34.320Z,99.99
2023-03-29T01:33:34.183Z,99.99
2023-03-29T01:34:34.160Z,99.99
2023-03-29T01:35:34.187Z,99.99
2023-03-29T01:36:34.148Z,99.99
2023-03-29T01:37:34.210Z,99.99
2023-03-29T01:38:34.117Z,99.99
2023-03-29T01:39:34.104Z,99.99
2023-03-29T01:40:34.099Z,99.99
2023-03-29T01:41:34.105Z,99.99
2023-03-29T01:42:34.116Z,99.99
2023-03-29T01:43:34.086Z,99.99
2023-03-29T01:44:34.070Z,99.99
2023-03-29T01:45:34.089Z,99.99
2023-03-29T01:46:34.180Z,99.99
2023-03-29T01:47:34.123Z,99.99
2023-03-29T01:48:34.066Z,99.99
2023-03-29T01:49:34.033Z,99.99
2023-03-29T01:50:33.982Z,99.99
2023-03-29T01:51:33.971Z,99.99
2023-03-29T01:52:34.087Z,99.99
2023-03-29T01:53:33.954Z,99.99
2023-03-29T01:54:33.936Z,99.99
2023-03-29T01:55:33.941Z,99.99
2023-03-29T01:56:33.909Z,99.99
2023-03-29T01:57:33.942Z,99.99
2023-03-29T01:58:33.954Z,99.99
2023-03-29T01:59:33.899Z,99.99
2023-03-29T02:00:33.879Z,99.99
2023-03-29T02:01:33.898Z,99.99
2023-03-29T02:02:34.054Z,99.99
2023-03-29T02:03:33.997Z,99.99
2023-03-29T02:04:33.828Z,99.99
2023-03-29T02:05:33.816Z,99.99
2023-03-29T02:06:33.821Z,99.99
2023-03-29T02:07:33.822Z,99.99
2023-03-29T02:08:33.779Z,99.99
2023-03-29T02:09:33.782Z,99.99
2023-03-29T02:10:33.765Z,99.99
2023-03-29T02:11:33.744Z,99.99
2023-03-29T02:12:33.777Z,99.99
2023-03-29T02:13:33.717Z,99.99
2023-03-29T02:14:33.727Z,99.99
2023-03-29T02:15:33.813Z,99.99
2023-03-29T02:16:33.687Z,99.99
2023-03-29T02:17:33.773Z,99.99
2023-03-29T02:18:33.670Z,99.99
2023-03-29T02:19:33.675Z,99.99
2023-03-29T02:20:33.646Z,99.99
2023-03-29T02:21:33.655Z,99.71
2023-03-29T02:22:33.665Z,99.19
2023-03-29T02:23:33.620Z,99.08
2023-03-29T02:24:33.608Z,98.77
2023-03-29T02:25:33.625Z,98.56
2023-03-29T02:26:33.589Z,98.56
2023-03-29T02:27:33.611Z,98.25
2023-03-29T02:28:33.570Z,97.99
2023-03-29T02:29:33.556Z,97.89
2023-03-29T02:30:33.538Z,97.78
2023-03-29T02:31:33.559Z,97.89
2023-03-29T02:32:33.552Z,97.47
2023-03-29T02:33:33.541Z,97.37
2023-03-29T02:34:33.485Z,97.37
2023-03-29T02:35:33.523Z,97.37
2023-03-29T02:36:33.475Z,97.37
2023-03-29T02:37:33.462Z,97.47
2023-03-29T02:38:33.494Z,96.95
2023-03-29T02:39:33.440Z,96.95
2023-03-29T02:40:33.429Z,96.95
2023-03-29T02:41:33.420Z,96.70
2023-03-29T02:42:33.433Z,96.70
2023-03-29T02:43:33.421Z,96.53
2023-03-29T02:44:33.383Z,96.53
2023-03-29T02:45:33.359Z,96.53
2023-03-29T02:46:33.366Z,96.38
2023-03-29T02:47:33.392Z,95.76
2023-03-29T02:48:33.363Z,95.76
2023-03-29T02:49:33.324Z,95.44
2023-03-29T02:50:33.342Z,95.19
2023-03-29T02:51:33.318Z,94.71
2023-03-29T02:52:33.294Z,95.03
2023-03-29T02:53:33.332Z,95.44
2023-03-29T02:54:33.277Z,95.90
2023-03-29T02:55:33.259Z,96.33
2023-03-29T02:56:33.246Z,96.78
2023-03-29T02:57:33.236Z,97.20
2023-03-29T02:58:33.262Z,97.52
2023-03-29T02:59:33.216Z,98.04
2023-03-29T03:00:33.201Z,98.29
2023-03-29T03:01:33.212Z,98.50
2023-03-29T03:02:33.223Z,98.86
2023-03-29T03:03:33.327Z,98.75
2023-03-29T03:04:33.160Z,99.32
2023-03-29T03:05:33.160Z,99.95
2023-03-29T03:06:33.145Z,99.99
2023-03-29T03:07:33.130Z,99.99
2023-03-29T03:08:33.179Z,99.99
2023-03-29T03:09:33.105Z,99.99
2023-03-29T03:10:33.121Z,99.99
2023-03-29T03:11:33.086Z,99.99
2023-03-29T03:12:33.074Z,99.99
2023-03-29T03:13:33.094Z,99.99
2023-03-29T03:14:33.059Z,99.99
2023-03-29T03:15:33.028Z,99.99
2023-03-29T03:16:33.042Z,99.99
2023-03-29T03:17:33.013Z,99.99
2023-03-29T03:18:33.033Z,99.99
2023-03-29T03:19:33.004Z,99.99
2023-03-29T03:20:32.988Z,99.99
2023-03-29T03:21:32.976Z,99.99
2023-03-29T03:22:32.953Z,99.99
2023-03-29T03:23:32.972Z,99.99
2023-03-29T03:24:32.936Z,99.99
2023-03-29T03:25:32.916Z,99.99
2023-03-29T03:26:32.902Z,99.99
2023-03-29T03:27:32.892Z,99.99
2023-03-29T03:28:32.923Z,99.99
2023-03-29T03:29:32.879Z,99.99
2023-03-29T03:30:32.877Z,99.99
2023-03-29T03:31:32.914Z,99.99
2023-03-29T03:32:32.856Z,99.99
2023-03-29T03:33:32.858Z,99.99
2023-03-29T03:34:32.889Z,99.99
2023-03-29T03:35:32.837Z,99.99
2023-03-29T03:36:32.819Z,99.99
2023-03-29T03:37:32.777Z,99.99
2023-03-29T03:38:32.809Z,99.99
2023-03-29T03:39:32.772Z,99.99
2023-03-29T03:40:32.779Z,99.99
2023-03-29T03:41:32.740Z,99.99
2023-03-29T03:42:32.761Z,99.99
2023-03-29T03:43:32.739Z,99.99
2023-03-29T03:44:32.709Z,99.99
2023-03-29T03:45:32.704Z,99.99
2023-03-29T03:46:32.698Z,99.99
2023-03-29T03:47:32.704Z,99.99
2023-03-29T03:48:32.705Z,99.99
2023-03-29T03:49:32.642Z,99.99
2023-03-29T03:50:32.643Z,99.99
2023-03-29T03:51:32.640Z,99.99
2023-03-29T03:52:32.658Z,99.99
2023-03-29T03:53:32.643Z,99.99
2023-03-29T03:54:32.610Z,99.99
2023-03-29T03:55:32.577Z,99.99
2023-03-29T03:56:32.599Z,99.99
2023-03-29T03:57:32.566Z,99.99
2023-03-29T03:58:32.591Z,99.99
2023-03-29T03:59:32.552Z,99.99
2023-03-29T04:00:32.526Z,99.99
2023-03-29T04:01:32.521Z,99.99
2023-03-29T04:02:32.574Z,99.99
2023-03-29T04:03:32.592Z,99.99
2023-03-29T04:04:33.513Z,99.99
2023-03-29T04:05:32.463Z,99.99
2023-03-29T04:06:32.481Z,99.40
2023-03-29T04:07:32.443Z,98.31
2023-03-29T04:08:32.470Z,97.89
2023-03-29T04:09:32.437Z,97.68
2023-03-29T04:10:32.431Z,97.47
2023-03-29T04:11:32.410Z,97.01
2023-03-29T04:12:32.389Z,96.49
2023-03-29T04:13:32.418Z,96.28
2023-03-29T04:14:32.421Z,95.19
2023-03-29T04:15:32.362Z,94.46
2023-03-29T04:16:32.356Z,94.46
2023-03-29T04:17:32.358Z,94.46
2023-03-29T04:18:32.481Z,93.79
2023-03-29T04:19:32.327Z,93.48
2023-03-29T04:20:32.297Z,93.48
2023-03-29T04:21:32.287Z,93.59
2023-03-29T04:22:32.330Z,93.94
2023-03-29T04:23:32.288Z,93.73
2023-03-29T04:24:32.277Z,93.48
2023-03-29T04:25:32.243Z,92.96
2023-03-29T04:26:32.243Z,92.18
2023-03-29T04:27:32.233Z,91.87
2023-03-29T04:28:32.268Z,91.46
2023-03-29T04:29:32.207Z,91.46
2023-03-29T04:30:32.210Z,91.14
2023-03-29T04:31:32.308Z,91.14
2023-03-29T04:32:32.285Z,91.46
2023-03-29T04:33:32.209Z,91.77
2023-03-29T04:34:32.174Z,91.87
2023-03-29T04:35:32.152Z,92.29
2023-03-29T04:36:32.138Z,92.08
2023-03-29T04:37:32.120Z,92.08
2023-03-29T04:38:32.152Z,92.44
2023-03-29T04:39:32.178Z,92.85
2023-03-29T04:40:32.102Z,92.33
2023-03-29T04:41:32.070Z,92.44
2023-03-29T04:42:32.070Z,92.79
2023-03-29T04:43:32.101Z,93.15
2023-03-29T04:44:32.029Z,93.46
2023-03-29T04:45:32.053Z,93.15
2023-03-29T04:46:32.078Z,93.10
2023-03-29T04:47:32.050Z,93.21
2023-03-29T04:48:32.059Z,93.57
2023-03-29T04:49:32.004Z,93.77
2023-03-29T04:50:31.977Z,94.09
2023-03-29T04:51:31.958Z,94.50
2023-03-29T04:52:31.941Z,94.86
2023-03-29T04:53:31.983Z,95.17
2023-03-29T04:54:31.944Z,95.49
2023-03-29T04:55:31.920Z,95.80
2023-03-29T04:56:31.908Z,95.90
2023-03-29T04:57:31.908Z,95.70
2023-03-29T04:58:32.653Z,95.59
2023-03-29T04:59:31.888Z,95.49
2023-03-29T05:00:31.894Z,95.17
2023-03-29T05:01:31.904Z,95.07
2023-03-29T05:02:31.884Z,95.28
2023-03-29T05:03:31.875Z,95.03
2023-03-29T05:04:31.912Z,94.19
2023-03-29T05:05:31.816Z,93.73
2023-03-29T05:06:31.812Z,93.52
2023-03-29T05:07:31.780Z,93.10
2023-03-29T05:08:31.819Z,93.31
2023-03-29T05:09:34.325Z,93.73
2023-03-29T05:10:31.767Z,93.63
2023-03-29T05:11:31.767Z,93.10
2023-03-29T05:12:31.714Z,92.75
2023-03-29T05:13:31.761Z,92.54
2023-03-29T05:14:31.766Z,92.22
2023-03-29T05:15:31.719Z,92.22
2023-03-29T05:16:31.798Z,91.91
2023-03-29T05:17:31.741Z,91.81
2023-03-29T05:18:31.721Z,92.22
2023-03-29T05:19:31.956Z,92.54
2023-03-29T05:20:31.643Z,93.06
2023-03-29T05:21:31.608Z,92.54
2023-03-29T05:22:31.600Z,92.65
2023-03-29T05:23:31.624Z,92.96
2023-03-29T05:24:31.598Z,92.65
2023-03-29T05:25:31.571Z,92.85
2023-03-29T05:26:31.576Z,92.65
2023-03-29T05:27:31.562Z,92.33
2023-03-29T05:28:31.611Z,92.65
2023-03-29T05:29:31.541Z,92.75
2023-03-29T05:30:31.531Z,92.54
2023-03-29T05:31:31.518Z,92.65
2023-03-29T05:32:31.558Z,91.97
2023-03-29T05:33:31.484Z,91.66
2023-03-29T05:34:31.514Z,91.52
2023-03-29T05:35:31.470Z,90.89
2023-03-29T05:36:31.476Z,90.79
2023-03-29T05:37:31.448Z,90.26
2023-03-29T05:38:31.470Z,90.01
2023-03-29T05:39:31.468Z,89.70
2023-03-29T05:40:31.404Z,89.81
2023-03-29T05:41:31.394Z,89.70
2023-03-29T05:42:31.385Z,89.70
2023-03-29T05:43:31.346Z,89.70
2023-03-29T05:44:31.387Z,89.81
2023-03-29T05:45:31.351Z,89.50
2023-03-29T05:46:31.333Z,89.39
2023-03-29T05:47:31.358Z,89.18
2023-03-29T05:48:31.306Z,89.29
2023-03-29T05:49:31.340Z,88.93
2023-03-29T05:50:31.286Z,88.73
2023-03-29T05:51:31.258Z,88.62
2023-03-29T05:52:31.242Z,88.83
2023-03-29T05:53:31.230Z,89.14
2023-03-29T05:54:31.304Z,89.04
2023-03-29T05:55:31.220Z,88.10
2023-03-29T05:56:31.240Z,87.89
2023-03-29T05:57:31.199Z,87.75
2023-03-29T05:58:31.207Z,87.75
2023-03-29T05:59:31.242Z,88.06
2023-03-29T06:00:31.178Z,88.06
2023-03-29T06:01:31.177Z,87.54
2023-03-29T06:02:31.314Z,87.60
2023-03-29T06:03:31.267Z,86.98
2023-03-29T06:04:31.218Z,86.67
2023-03-29T06:05:31.134Z,86.04
2023-03-29T06:06:31.093Z,85.73
2023-03-29T06:07:31.092Z,85.28
2023-03-29T06:08:31.122Z,85.49
2023-03-29T06:09:31.111Z,84.65
2023-03-29T06:10:31.054Z,84.61
2023-03-29T06:11:31.032Z,84.30
2023-03-29T06:12:31.040Z,83.95
2023-03-29T06:13:31.020Z,84.16
2023-03-29T06:14:31.049Z,83.95
2023-03-29T06:15:31.004Z,83.50
2023-03-29T06:16:31.014Z,84.12
2023-03-29T06:17:31.010Z,82.56
2023-03-29T06:18:30.966Z,82.53
2023-03-29T06:19:31.000Z,82.53
2023-03-29T06:20:30.952Z,82.39
2023-03-29T06:21:30.919Z,82.24
2023-03-29T06:22:30.910Z,81.51
2023-03-29T06:23:30.921Z,81.10
2023-03-29T06:24:30.934Z,81.20
2023-03-29T06:25:30.876Z,80.47
2023-03-29T06:26:30.899Z,79.96
2023-03-29T06:27:30.869Z,80.58
2023-03-29T06:28:30.861Z,80.79
2023-03-29T06:29:30.890Z,80.44
2023-03-29T06:30:30.868Z,80.06
2023-03-29T06:31:30.849Z,80.89
2023-03-29T06:32:30.848Z,81.06
2023-03-29T06:33:30.809Z,79.71
2023-03-29T06:34:30.831Z,79.20
2023-03-29T06:35:30.818Z,79.61
2023-03-29T06:36:30.771Z,79.92
2023-03-29T06:37:30.749Z,80.65
2023-03-29T06:38:30.758Z,79.61
2023-03-29T06:39:30.762Z,79.27
2023-03-29T06:40:30.756Z,79.68
2023-03-29T06:41:30.690Z,78.75
2023-03-29T06:42:30.720Z,78.54
2023-03-29T06:43:30.685Z,77.71
2023-03-29T06:44:30.734Z,78.85
2023-03-29T06:45:30.664Z,78.12
2023-03-29T06:46:30.661Z,78.33
2023-03-29T06:47:30.711Z,78.19
2023-03-29T06:48:30.627Z,78.61
2023-03-29T06:49:30.630Z,78.09
2023-03-29T06:50:30.608Z,77.91
2023-03-29T06:51:30.593Z,77.29
2023-03-29T06:52:30.563Z,77.47
2023-03-29T06:53:30.558Z,75.50
2023-03-29T06:54:30.589Z,75.81
2023-03-29T06:55:30.540Z,76.05
2023-03-29T06:56:30.532Z,75.74
2023-03-29T06:57:30.563Z,76.53
2023-03-29T06:58:30.506Z,77.22
2023-03-29T06:59:30.517Z,76.18
2023-03-29T07:00:30.494Z,75.78
2023-03-29T07:01:30.525Z,75.36
2023-03-29T07:02:30.505Z,75.26
2023-03-29T07:03:30.450Z,75.22
2023-03-29T07:04:30.491Z,74.29
2023-03-29T07:05:30.414Z,73.60
2023-03-29T07:06:30.435Z,74.43
2023-03-29T07:07:30.539Z,74.63
2023-03-29T07:08:30.436Z,74.02
2023-03-29T07:09:30.426Z,74.63
2023-03-29T07:10:30.368Z,74.05
2023-03-29T07:11:30.374Z,72.95
2023-03-29T07:12:30.350Z,73.81
2023-03-29T07:13:30.354Z,74.43
2023-03-29T07:14:30.385Z,74.19
2023-03-29T07:15:30.332Z,73.57
2023-03-29T07:16:30.350Z,73.54
2023-03-29T07:17:30.295Z,73.12
2023-03-29T07:18:30.292Z,72.67
2023-03-29T07:19:30.421Z,72.06
2023-03-29T07:20:30.260Z,71.51
2023-03-29T07:21:30.234Z,70.89
2023-03-29T07:22:30.253Z,69.82
2023-03-29T07:23:30.220Z,70.89
2023-03-29T07:24:30.252Z,69.11
2023-03-29T07:25:30.198Z,67.77
2023-03-29T07:26:30.422Z,67.53
2023-03-29T07:27:30.185Z,66.50
2023-03-29T07:28:30.161Z,67.50
2023-03-29T07:29:30.464Z,66.22
2023-03-29T07:30:32.032Z,66.87
2023-03-29T07:31:30.121Z,67.70
2023-03-29T07:32:30.142Z,67.84
2023-03-29T07:33:30.180Z,66.47
2023-03-29T07:34:30.136Z,66.91
2023-03-29T07:35:30.097Z,67.30
2023-03-29T07:36:30.067Z,66.06
2023-03-29T07:37:30.061Z,66.19
2023-03-29T07:38:30.042Z,67.98
2023-03-29T07:39:30.078Z,65.59
2023-03-29T07:40:30.014Z,65.48
2023-03-29T07:41:30.048Z,66.07
2023-03-29T07:42:30.025Z,66.04
2023-03-29T07:43:29.987Z,64.78
2023-03-29T07:44:30.037Z,62.88
2023-03-29T07:45:30.044Z,63.43
2023-03-29T07:46:29.979Z,65.13
2023-03-29T07:47:29.990Z,66.99
2023-03-29T07:48:29.923Z,67.09
2023-03-29T07:49:29.954Z,65.89
2023-03-29T07:50:29.887Z,66.02
2023-03-29T07:51:29.890Z,67.15
2023-03-29T07:52:29.890Z,67.74
2023-03-29T07:53:29.906Z,66.71
2023-03-29T07:54:29.893Z,67.12
2023-03-29T07:55:29.845Z,65.99
2023-03-29T07:56:29.865Z,65.81
2023-03-29T07:57:29.860Z,66.71
2023-03-29T07:58:29.820Z,68.02
2023-03-29T07:59:29.864Z,66.24
2023-03-29T08:00:29.816Z,65.83
2023-03-29T08:01:29.871Z,66.20
2023-03-29T08:02:30.093Z,64.11
2023-03-29T08:03:29.814Z,65.13
2023-03-29T08:04:29.880Z,65.37
2023-03-29T08:05:40.837Z,66.27
2023-03-29T08:06:30.773Z,65.16
2023-03-29T08:07:29.706Z,66.27
2023-03-29T08:08:29.721Z,66.34
2023-03-29T08:09:29.733Z,64.56
2023-03-29T08:10:29.682Z,65.05
2023-03-29T08:11:29.691Z,65.53
2023-03-29T08:12:29.663Z,64.47
2023-03-29T08:13:29.645Z,65.36
2023-03-29T08:14:29.683Z,61.87
2023-03-29T08:15:29.656Z,63.21
2023-03-29T08:16:29.665Z,64.13
2023-03-29T08:17:29.629Z,64.07
2023-03-29T08:18:30.060Z,61.33
2023-03-29T08:19:29.612Z,63.44
2023-03-29T08:20:29.553Z,63.82
2023-03-29T08:21:29.565Z,63.27
2023-03-29T08:22:29.566Z,64.57
2023-03-29T08:23:29.525Z,63.85
2023-03-29T08:24:29.568Z,62.26
2023-03-29T08:25:29.517Z,62.46
2023-03-29T08:26:29.496Z,62.49
2023-03-29T08:27:29.497Z,61.98
2023-03-29T08:28:29.461Z,62.31
2023-03-29T08:29:29.497Z,63.18
2023-03-29T08:30:29.492Z,61.45
2023-03-29T08:31:29.532Z,60.37
2023-03-29T08:32:29.458Z,59.45
2023-03-29T08:33:29.420Z,59.66
2023-03-29T08:34:29.400Z,58.58
2023-03-29T08:35:29.443Z,60.60
2023-03-29T08:36:29.406Z,59.71
2023-03-29T08:37:29.378Z,60.42
2023-03-29T08:38:29.351Z,60.94
2023-03-29T08:39:29.359Z,61.55
2023-03-29T08:40:29.394Z,60.81
2023-03-29T08:41:29.347Z,59.92
2023-03-29T08:42:29.307Z,60.58
2023-03-29T08:43:29.317Z,61.85
2023-03-29T08:44:29.281Z,62.30
2023-03-29T08:45:29.357Z,60.76
2023-03-29T08:46:34.799Z,59.97
2023-03-29T08:47:30.329Z,62.23
2023-03-29T08:48:29.236Z,62.78
2023-03-29T08:49:29.229Z,60.12
2023-03-29T08:50:29.292Z,60.10
2023-03-29T08:51:29.197Z,60.65
2023-03-29T08:52:29.196Z,59.63
2023-03-29T08:53:29.191Z,59.94
2023-03-29T08:54:29.185Z,59.34
2023-03-29T08:55:29.207Z,57.88
2023-03-29T08:56:31.452Z,57.29
2023-03-29T08:57:29.136Z,57.09
2023-03-29T08:58:29.151Z,56.63
2023-03-29T08:59:29.126Z,59.41
2023-03-29T09:00:29.127Z,60.76
2023-03-29T09:01:29.094Z,61.89
2023-03-29T09:02:29.180Z,61.55
2023-03-29T09:03:29.157Z,61.45
2023-03-29T09:04:29.057Z,62.04
2023-03-29T09:05:29.080Z,60.47
2023-03-29T09:06:29.021Z,60.35
2023-03-29T09:07:29.040Z,59.32
2023-03-29T09:08:29.020Z,60.27
2023-03-29T09:09:29.007Z,60.47
2023-03-29T09:10:29.028Z,60.78
2023-03-29T09:11:28.992Z,59.76
2023-03-29T09:12:28.963Z,60.10
2023-03-29T09:13:28.983Z,60.10
2023-03-29T09:14:28.934Z,61.52
2023-03-29T09:15:28.977Z,61.93
2023-03-29T09:16:28.954Z,61.50
2023-03-29T09:17:28.921Z,59.83
2023-03-29T09:18:28.914Z,61.60
2023-03-29T09:19:28.864Z,62.62
2023-03-29T09:20:28.922Z,62.66
2023-03-29T09:21:28.845Z,60.72
2023-03-29T09:22:28.868Z,61.34
2023-03-29T09:23:28.842Z,61.61
2023-03-29T09:24:28.855Z,59.82
2023-03-29T09:25:28.852Z,58.87
2023-03-29T09:26:28.799Z,58.37
2023-03-29T09:27:28.813Z,59.94
2023-03-29T09:28:28.752Z,57.45
2023-03-29T09:29:28.786Z,58.67
2023-03-29T09:30:28.797Z,59.84
2023-03-29T09:31:28.807Z,57.42
2023-03-29T09:32:28.739Z,60.25
2023-03-29T09:33:28.732Z,58.14
2023-03-29T09:34:28.715Z,59.80
2023-03-29T09:35:28.747Z,61.10
2023-03-29T09:36:28.678Z,62.16
2023-03-29T09:37:28.691Z,62.57
2023-03-29T09:38:28.713Z,63.28
2023-03-29T09:39:28.737Z,62.36
2023-03-29T09:40:28.698Z,62.62
2023-03-29T09:41:28.650Z,63.85
2023-03-29T09:42:28.626Z,64.47
2023-03-29T09:43:28.609Z,64.64
2023-03-29T09:44:31.344Z,63.34
2023-03-29T09:45:28.608Z,64.06
2023-03-29T09:46:28.563Z,63.85
2023-03-29T09:47:28.574Z,64.80
2023-03-29T09:48:28.552Z,64.94
2023-03-29T09:49:28.522Z,66.13
2023-03-29T09:50:31.710Z,63.75
2023-03-29T09:51:28.502Z,63.95
2023-03-29T09:52:28.518Z,63.75
2023-03-29T09:53:28.550Z,64.87
2023-03-29T09:54:28.472Z,63.78
2023-03-29T09:55:28.519Z,65.45
2023-03-29T09:56:28.446Z,66.57
2023-03-29T09:57:28.577Z,64.94
2023-03-29T09:58:28.437Z,65.55
2023-03-29T09:59:28.440Z,66.10
2023-03-29T10:00:28.489Z,66.00
2023-03-29T10:01:28.453Z,65.08
2023-03-29T10:02:28.422Z,64.90
2023-03-29T10:03:28.384Z,65.24
2023-03-29T10:04:28.405Z,65.34
2023-03-29T10:05:28.398Z,66.88
2023-03-29T10:06:28.343Z,66.16
2023-03-29T10:07:28.352Z,66.67
2023-03-29T10:08:28.334Z,67.11
2023-03-29T10:09:28.304Z,67.94
2023-03-29T10:10:28.350Z,66.88
2023-03-29T10:11:28.326Z,67.11
2023-03-29T10:12:28.277Z,67.35
2023-03-29T10:13:28.253Z,67.43
2023-03-29T10:14:28.241Z,67.29
2023-03-29T10:15:29.983Z,66.54
2023-03-29T10:16:28.225Z,66.03
2023-03-29T10:17:28.293Z,65.86
2023-03-29T10:18:28.215Z,66.50
2023-03-29T10:19:28.222Z,67.26
2023-03-29T10:20:28.200Z,65.73
2023-03-29T10:21:28.240Z,63.06
2023-03-29T10:22:28.165Z,61.19
2023-03-29T10:23:28.153Z,61.22
2023-03-29T10:24:28.161Z,61.05
2023-03-29T10:25:28.121Z,62.43
2023-03-29T10:26:28.153Z,63.45
2023-03-29T10:27:28.131Z,62.74
2023-03-29T10:28:28.089Z,63.86
2023-03-29T10:29:28.074Z,63.43
2023-03-29T10:30:28.076Z,63.22
2023-03-29T10:31:28.166Z,63.71
2023-03-29T10:32:28.045Z,60.60
2023-03-29T10:33:28.047Z,61.40
2023-03-29T10:34:28.029Z,62.76
2023-03-29T10:35:28.024Z,62.81
2023-03-29T10:36:28.023Z,64.64
2023-03-29T10:37:27.983Z,66.25
2023-03-29T10:38:27.972Z,65.12
2023-03-29T10:39:28.019Z,63.60
2023-03-29T10:40:27.958Z,64.22
2023-03-29T10:41:27.979Z,62.55
2023-03-29T10:42:27.920Z,64.28
2023-03-29T10:43:27.961Z,64.15
2023-03-29T10:44:28.632Z,62.35
2023-03-29T10:45:27.925Z,63.41
2023-03-29T10:46:27.971Z,61.63
2023-03-29T10:47:27.928Z,63.15
2023-03-29T10:48:27.848Z,65.60
2023-03-29T10:49:27.857Z,65.12
2023-03-29T10:50:27.845Z,66.31
2023-03-29T10:51:27.903Z,64.45
2023-03-29T10:52:27.804Z,62.42
2023-03-29T10:53:27.815Z,61.24
2023-03-29T10:54:27.894Z,60.73
2023-03-29T10:55:27.783Z,60.70
2023-03-29T10:56:27.810Z,60.73
2023-03-29T10:57:27.815Z,58.94
2023-03-29T10:58:27.761Z,60.72
2023-03-29T10:59:27.738Z,58.48
2023-03-29T11:00:27.752Z,59.12
2023-03-29T11:01:27.779Z,60.27
2023-03-29T11:02:27.753Z,60.60
2023-03-29T11:03:27.776Z,59.80
2023-03-29T11:04:27.690Z,59.09
2023-03-29T11:05:27.679Z,59.38
2023-03-29T11:06:27.718Z,59.75
2023-03-29T11:07:27.628Z,60.77
2023-03-29T11:08:30.428Z,61.47
2023-03-29T11:09:27.620Z,61.63
2023-03-29T11:10:27.642Z,64.40
2023-03-29T11:11:27.627Z,65.19
2023-03-29T11:12:27.599Z,64.99
2023-03-29T11:13:27.578Z,63.64
2023-03-29T11:14:27.537Z,61.76
2023-03-29T11:15:27.537Z,57.97
2023-03-29T11:16:27.638Z,58.76
2023-03-29T11:17:27.580Z,58.09
2023-03-29T11:18:27.518Z,56.21
2023-03-29T11:19:27.518Z,57.08
2023-03-29T11:20:27.493Z,58.78
2023-03-29T11:21:27.522Z,57.36
2023-03-29T11:22:27.489Z,58.73
2023-03-29T11:23:27.600Z,55.40
2023-03-29T11:24:27.478Z,59.06
2023-03-29T11:25:29.621Z,58.94
2023-03-29T11:26:27.498Z,58.99
2023-03-29T11:27:27.417Z,59.12
2023-03-29T11:28:27.405Z,60.19
2023-03-29T11:29:27.390Z,62.23
2023-03-29T11:30:27.389Z,60.39
2023-03-29T11:31:27.461Z,61.79
2023-03-29T11:32:27.390Z,58.92
2023-03-29T11:33:27.357Z,60.54
2023-03-29T11:34:27.332Z,59.73
2023-03-29T11:35:27.310Z,59.53
2023-03-29T11:36:27.365Z,60.22
2023-03-29T11:37:27.333Z,64.01
2023-03-29T11:38:27.284Z,65.07
2023-03-29T11:39:27.262Z,63.23
2023-03-29T11:40:27.293Z,63.87
2023-03-29T11:41:27.334Z,63.64
2023-03-29T11:42:27.293Z,62.32
2023-03-29T11:43:27.255Z,63.16
2023-03-29T11:44:27.234Z,64.01
2023-03-29T11:45:27.201Z,63.29
2023-03-29T11:46:27.298Z,63.86
2023-03-29T11:47:27.233Z,64.92
2023-03-29T11:48:27.177Z,65.81
2023-03-29T11:49:27.163Z,63.10
2023-03-29T11:50:27.155Z,61.56
2023-03-29T11:51:27.160Z,59.84
2023-03-29T11:52:27.131Z,58.65
2023-03-29T11:53:27.099Z,56.47
2023-03-29T11:54:27.099Z,58.15
2023-03-29T11:55:27.075Z,59.05
2023-03-29T11:56:27.104Z,56.04
2023-03-29T11:57:27.233Z,57.81
2023-03-29T11:58:27.081Z,57.64
2023-03-29T11:59:27.050Z,57.68
2023-03-29T12:00:27.043Z,58.37
2023-03-29T12:01:27.062Z,58.33
2023-03-29T12:02:27.040Z,58.56
2023-03-29T12:03:27.035Z,59.32
2023-03-29T12:04:27.037Z,58.02
2023-03-29T12:05:26.972Z,60.02
2023-03-29T12:06:26.987Z,57.06
2023-03-29T12:07:26.966Z,60.54
2023-03-29T12:08:27.003Z,59.64
2023-03-29T12:09:26.916Z,58.53
2023-03-29T12:10:27.047Z,59.69
2023-03-29T12:11:26.930Z,56.24
2023-03-29T12:12:26.896Z,58.07
2023-03-29T12:13:26.895Z,61.41
2023-03-29T12:14:28.102Z,62.21
2023-03-29T12:15:26.841Z,63.85
2023-03-29T12:16:26.897Z,63.57
2023-03-29T12:17:26.856Z,63.83
2023-03-29T12:18:26.843Z,64.58
2023-03-29T12:19:26.844Z,64.75
2023-03-29T12:20:26.817Z,65.44
2023-03-29T12:21:26.840Z,64.22
2023-03-29T12:22:26.774Z,63.98
2023-03-29T12:23:26.775Z,63.44
2023-03-29T12:24:26.893Z,63.87
2023-03-29T12:25:26.768Z,63.54
2023-03-29T12:26:26.778Z,62.76
2023-03-29T12:27:26.736Z,63.43
2023-03-29T12:28:26.754Z,66.18
2023-03-29T12:29:26.677Z,65.43
2023-03-29T12:30:26.691Z,65.70
2023-03-29T12:31:26.761Z,64.78
2023-03-29T12:32:26.692Z,65.02
2023-03-29T12:33:26.649Z,65.43
2023-03-29T12:34:26.674Z,66.04
2023-03-29T12:35:26.645Z,65.84
2023-03-29T12:36:26.654Z,66.00
2023-03-29T12:37:26.616Z,66.61
2023-03-29T12:38:28.718Z,66.72
2023-03-29T12:39:26.587Z,68.73
2023-03-29T12:40:26.577Z,66.66
2023-03-29T12:41:26.614Z,66.07
2023-03-29T12:42:26.564Z,66.48
2023-03-29T12:43:26.524Z,67.57
2023-03-29T12:44:26.569Z,65.46
2023-03-29T12:45:26.496Z,66.35
2023-03-29T12:46:26.764Z,65.37
2023-03-29T12:47:26.526Z,64.66
2023-03-29T12:48:26.513Z,63.24
2023-03-29T12:49:26.471Z,60.69
2023-03-29T12:50:26.458Z,58.86
2023-03-29T12:51:26.488Z,57.79
2023-03-29T12:52:26.436Z,58.04